Wednesday, June 20, 2018, 5:12 PM EDT
Back to Local

KPNE, N.e. Philadelphia Airport

Location: Philadelphia, PA, United States Lat: 40.083
Local Time: 5:12 PM EDT (21:12 GMT) Lon: -75.017
Time Zone: US/Eastern Elev: 121 ft

Show me the last for .
Show Decoded

2018-06-20 16:54 METAR KPNE 202054Z 00000KT 10SM BKN055 OVC090 29/19 A2979 RMK AO2 SLP084
                 T02890189 58013 =
2018-06-20 15:54 METAR KPNE 201954Z 28006KT 10SM SCT060 SCT075 BKN095 30/17 A2980 RMK AO2 SLP091
                 T03000167 =
2018-06-20 14:54 METAR KPNE 201854Z VRB04KT 10SM FEW060 SCT110 31/17 A2982 RMK AO2 SLP095
                 T03110167 =
2018-06-20 13:54 METAR KPNE 201754Z 00000KT 10SM SCT060 31/16 A2982 RMK AO2 SLP098 T03060156
                 10306 20233 58022 =
2018-06-20 12:54 METAR KPNE 201654Z 10SM SCT049 SCT055 31/18 A2985 RMK AO2 SLP105 T03060178 =
2018-06-20 11:54 METAR KPNE 201554Z 19005KT 10SM FEW036 29/19 A2987 RMK AO2 SLP114 T02890189 =
2018-06-20 10:54 METAR KPNE 201454Z 20003KT 10SM CLR 27/18 A2989 RMK AO2 SLP120 T02720178 58009 =
2018-06-20 10:39 METAR KPNE 201439Z 00000KT 10SM SCT024 27/17 A2989 RMK AO2 T02720172 =
2018-06-20 10:03 METAR KPNE 201403Z 14004KT 10SM BKN024 26/16 A2990 RMK AO2 T02560156 =
2018-06-20 09:54 METAR KPNE 201354Z 12004KT 10SM SCT024 26/16 A2990 RMK AO2 SLP123 T02610161 =
2018-06-20 08:54 METAR KPNE 201254Z 11006KT 10SM FEW024 24/14 A2991 RMK AO2 SLP126 T02440139 =
2018-06-20 07:54 METAR KPNE 201154Z 05005KT 10SM CLR 23/14 A2992 RMK AO2 SLP129 T02330139 10239
                 20200 53010 =
2018-06-20 06:54 METAR KPNE 201054Z 05004KT 10SM CLR 22/14 A2990 RMK AO2 SLP125 T02220139 =
2018-06-20 05:54 METAR KPNE 200954Z 04004KT 10SM CLR 20/13 A2989 RMK AO2 SLP122 T02000133 =
2018-06-20 04:54 METAR KPNE 200854Z AUTO 05004KT 10SM CLR 21/13 A2989 RMK AO2 SLP118 T02060128
                 53001 =
2018-06-20 03:54 METAR KPNE 200754Z AUTO 01003KT 10SM CLR 21/13 A2988 RMK AO2 SLP115 T02110128 =
2018-06-20 02:54 METAR KPNE 200654Z AUTO 36004KT 10SM CLR 22/12 A2988 RMK AO2 SLP117 T02170122 =
2018-06-20 01:54 METAR KPNE 200554Z AUTO 00000KT 10SM CLR 22/13 A2988 RMK AO2 SLP117 T02220128
                 10289 20222 50000 =
2018-06-20 00:54 METAR KPNE 200454Z AUTO 01004KT 10SM CLR 23/12 A2989 RMK AO2 SLP120 T02330122
                 403170228 =
2018-06-19 23:54 METAR KPNE 200354Z AUTO 35005KT 10SM CLR 23/13 A2988 RMK AO2 SLP117 T02330133 =
2018-06-19 22:54 METAR KPNE 200254Z AUTO 34006KT 10SM CLR 24/14 A2988 RMK AO2 SLP117 T02440139
                 51014 =
2018-06-19 21:54 METAR KPNE 200154Z 01006KT 10SM CLR 25/13 A2988 RMK AO2 SLP117 T02500128 =
2018-06-19 20:54 METAR KPNE 200054Z 36005KT 10SM CLR 25/14 A2986 RMK AO2 SLP109 T02500139 =
2018-06-19 19:54 METAR KPNE 192354Z 01007KT 10SM CLR 29/13 A2984 RMK AO2 SLP103 T02890128 10317
                 20289 53006 =
2018-06-19 18:54 METAR KPNE 192254Z 01007KT 10SM CLR 31/13 A2982 RMK AO2 SLP097 T03060133 =
2018-06-19 17:54 METAR KPNE 192154Z 03009G14KT 10SM CLR 31/14 A2982 RMK AO2 SLP095 T03110139 =

Support USWX by starting your Amazon purchase here.